Wetterdaten: Woche 16.10.06 - 22.10.06 (KW42)
Datum Zeit Temperatur Luftfeuchte Luftdruck Niederschlag Windrichtung Wind
16.10.2006 00:00 6,3 C 100 % 1026 hPa 0,0 l/m W 0,6 km/h (0 Bft)
16.10.2006 01:00 6,0 C 100 % 1025 hPa 0,0 l/m W-SW 0,7 km/h (0 Bft)
16.10.2006 02:00 5,6 C 100 % 1025 hPa 0,0 l/m W 2,4 km/h (1 Bft)
16.10.2006 03:00 5,4 C 100 % 1025 hPa 0,0 l/m W 3,0 km/h (1 Bft)
16.10.2006 04:00 6,5 C 100 % 1025 hPa 0,0 l/m NW 4,6 km/h (1 Bft)
16.10.2006 05:00 6,8 C 100 % 1025 hPa 0,0 l/m N-NW 5,7 km/h (1 Bft)
16.10.2006 06:00 6,9 C 100 % 1025 hPa 0,0 l/m N 5,2 km/h (1 Bft)
16.10.2006 07:00 7,0 C 100 % 1025 hPa 0,0 l/m N 7,5 km/h (2 Bft)
16.10.2006 08:00 6,9 C 100 % 1025 hPa 0,0 l/m N-NO 8,0 km/h (2 Bft)
16.10.2006 09:00 6,8 C 100 % 1025 hPa 0,0 l/m N 8,3 km/h (2 Bft)
16.10.2006 10:00 7,1 C 98 % 1025 hPa 0,0 l/m N-NO 9,2 km/h (2 Bft)
16.10.2006 11:00 7,5 C 96 % 1025 hPa 0,0 l/m N-NO 10,0 km/h (2 Bft)
16.10.2006 12:00 8,3 C 92 % 1025 hPa 0,0 l/m N-NO 10,7 km/h (2 Bft)
16.10.2006 13:00 10,1 C 79 % 1024 hPa 0,0 l/m N-NW 11,1 km/h (2 Bft)
16.10.2006 14:00 11,3 C 72 % 1024 hPa 0,0 l/m N 11,4 km/h (2 Bft)
16.10.2006 15:00 11,6 C 69 % 1023 hPa 0,0 l/m N 14,0 km/h (3 Bft)
16.10.2006 16:00 11,6 C 70 % 1023 hPa 0,0 l/m N 11,4 km/h (2 Bft)
16.10.2006 17:00 11,7 C 73 % 1022 hPa 0,0 l/m N-NW 9,0 km/h (2 Bft)
16.10.2006 18:00 11,0 C 74 % 1022 hPa 0,0 l/m NW 7,0 km/h (2 Bft)
16.10.2006 19:00 9,8 C 78 % 1022 hPa 0,0 l/m NW 9,1 km/h (2 Bft)
16.10.2006 20:00 9,3 C 79 % 1022 hPa 0,0 l/m NW 8,9 km/h (2 Bft)
16.10.2006 21:00 8,3 C 83 % 1022 hPa 0,0 l/m W-NW 5,4 km/h (1 Bft)
16.10.2006 22:00 7,0 C 87 % 1022 hPa 0,0 l/m W-NW 1,0 km/h (0 Bft)
16.10.2006 23:00 5,8 C 91 % 1022 hPa 0,0 l/m NW 4,1 km/h (1 Bft)
17.10.2006 00:00 4,9 C 93 % 1021 hPa 0,0 l/m W 2,1 km/h (1 Bft)
17.10.2006 01:00 4,1 C 96 % 1021 hPa 0,0 l/m W-NW 0,6 km/h (0 Bft)
17.10.2006 02:00 3,3 C 98 % 1021 hPa 0,0 l/m W 0,3 km/h (0 Bft)
17.10.2006 03:00 3,7 C 100 % 1021 hPa 0,0 l/m W 1,9 km/h (1 Bft)
17.10.2006 04:00 4,5 C 100 % 1021 hPa 0,0 l/m W-NW 0,4 km/h (0 Bft)
17.10.2006 05:00 4,9 C 100 % 1021 hPa 0,0 l/m N 0,0 km/h (0 Bft)
17.10.2006 06:00 5,1 C 99 % 1020 hPa 0,0 l/m N 0,0 km/h (0 Bft)
17.10.2006 07:00 5,5 C 99 % 1020 hPa 0,0 l/m N 0,0 km/h (0 Bft)
17.10.2006 08:00 5,8 C 99 % 1020 hPa 0,0 l/m N 0,0 km/h (0 Bft)
17.10.2006 09:00 6,4 C 99 % 1020 hPa 0,0 l/m N 0,0 km/h (0 Bft)
17.10.2006 10:00 7,7 C 99 % 1020 hPa 0,0 l/m N-NO 0,1 km/h (0 Bft)
17.10.2006 11:00 9,2 C 93 % 1020 hPa 0,0 l/m SO 2,6 km/h (1 Bft)
17.10.2006 12:00 10,8 C 81 % 1020 hPa 0,0 l/m SO 7,1 km/h (2 Bft)
17.10.2006 13:00 13,7 C 69 % 1019 hPa 0,0 l/m SO 6,8 km/h (2 Bft)
17.10.2006 14:00 15,9 C 58 % 1019 hPa 0,0 l/m O 4,8 km/h (1 Bft)
17.10.2006 15:00 16,4 C 54 % 1018 hPa 0,0 l/m N-NO 2,7 km/h (1 Bft)
17.10.2006 16:00 15,4 C 60 % 1018 hPa 0,0 l/m O-NO 1,6 km/h (1 Bft)
17.10.2006 17:00 14,4 C 69 % 1018 hPa 0,0 l/m N 0,0 km/h (0 Bft)
17.10.2006 18:00 11,9 C 81 % 1017 hPa 0,0 l/m N 0,0 km/h (0 Bft)
17.10.2006 19:00 9,9 C 89 % 1018 hPa 0,0 l/m N 0,0 km/h (0 Bft)
17.10.2006 20:00 8,5 C 93 % 1018 hPa 0,0 l/m N 0,1 km/h (0 Bft)
17.10.2006 21:00 7,6 C 97 % 1018 hPa 0,0 l/m W 0,6 km/h (0 Bft)
17.10.2006 22:00 6,7 C 98 % 1018 hPa 0,0 l/m N 0,0 km/h (0 Bft)
17.10.2006 23:00 5,5 C 98 % 1018 hPa 0,0 l/m N 0,0 km/h (0 Bft)
18.10.2006 00:00 4,0 C 98 % 1017 hPa 0,0 l/m N 0,0 km/h (0 Bft)
18.10.2006 01:00 3,4 C 100 % 1017 hPa 0,0 l/m N 0,0 km/h (0 Bft)
18.10.2006 02:00 3,3 C 100 % 1017 hPa 0,0 l/m N 0,0 km/h (0 Bft)
18.10.2006 03:00 3,0 C 100 % 1016 hPa 0,0 l/m N 0,0 km/h (0 Bft)
18.10.2006 04:00 3,0 C 100 % 1016 hPa 0,0 l/m N 0,0 km/h (0 Bft)
18.10.2006 05:00 3,1 C 100 % 1015 hPa 0,0 l/m N 0,0 km/h (0 Bft)
18.10.2006 06:00 3,2 C 100 % 1016 hPa 0,0 l/m N 0,0 km/h (0 Bft)
18.10.2006 07:00 3,5 C 100 % 1015 hPa 0,0 l/m N 0,0 km/h (0 Bft)
18.10.2006 08:00 4,0 C 100 % 1015 hPa 0,0 l/m N 0,0 km/h (0 Bft)
18.10.2006 09:00 5,2 C 100 % 1015 hPa 0,0 l/m N 0,0 km/h (0 Bft)
18.10.2006 10:00 6,3 C 100 % 1015 hPa 0,0 l/m N 0,0 km/h (0 Bft)
18.10.2006 11:00 7,4 C 100 % 1015 hPa 0,0 l/m NO 1,1 km/h (1 Bft)
18.10.2006 12:00 8,2 C 100 % 1014 hPa 0,0 l/m N 0,0 km/h (0 Bft)
18.10.2006 13:00 9,4 C 100 % 1014 hPa 0,0 l/m O-NO 0,4 km/h (0 Bft)
18.10.2006 14:00 10,7 C 100 % 1013 hPa 0,0 l/m O-SO 1,3 km/h (1 Bft)
18.10.2006 15:00 12,7 C 94 % 1012 hPa 0,0 l/m O-NO 1,3 km/h (1 Bft)
18.10.2006 16:00 13,3 C 87 % 1012 hPa 0,0 l/m N 0,0 km/h (0 Bft)
18.10.2006 17:00 13,0 C 90 % 1011 hPa 0,0 l/m N 0,0 km/h (0 Bft)
18.10.2006 18:00 12,2 C 91 % 1011 hPa 0,0 l/m N 0,0 km/h (0 Bft)
18.10.2006 19:00 10,2 C 95 % 1010 hPa 0,0 l/m N 0,0 km/h (0 Bft)
18.10.2006 20:00 9,2 C 98 % 1010 hPa 0,0 l/m W 0,6 km/h (0 Bft)
18.10.2006 21:00 8,7 C 100 % 1010 hPa 0,0 l/m W 3,4 km/h (1 Bft)
18.10.2006 22:00 8,7 C 100 % 1010 hPa 0,0 l/m W 2,7 km/h (1 Bft)
18.10.2006 23:00 8,4 C 100 % 1009 hPa 0,0 l/m W 1,6 km/h (1 Bft)
19.10.2006 00:00 8,2 C 100 % 1009 hPa 0,0 l/m W 3,9 km/h (1 Bft)
19.10.2006 01:00 8,0 C 100 % 1009 hPa 0,0 l/m W 2,3 km/h (1 Bft)
19.10.2006 02:00 7,8 C 100 % 1009 hPa 0,0 l/m W-NW 1,0 km/h (0 Bft)
19.10.2006 03:00 7,6 C 100 % 1008 hPa 0,0 l/m W-NW 1,1 km/h (1 Bft)
19.10.2006 04:00 7,3 C 100 % 1008 hPa 0,0 l/m N 0,0 km/h (0 Bft)
19.10.2006 05:00 7,0 C 100 % 1007 hPa 0,0 l/m N 0,0 km/h (0 Bft)
19.10.2006 06:00 6,7 C 100 % 1007 hPa 0,0 l/m SO 1,9 km/h (1 Bft)
19.10.2006 07:00 6,7 C 100 % 1007 hPa 0,0 l/m N 0,2 km/h (0 Bft)
19.10.2006 08:00 7,0 C 100 % 1008 hPa 0,0 l/m N 0,0 km/h (0 Bft)
19.10.2006 09:00 7,7 C 100 % 1008 hPa 0,0 l/m O-NO 1,3 km/h (1 Bft)
19.10.2006 10:00 8,6 C 100 % 1008 hPa 0,0 l/m O-SO 4,6 km/h (1 Bft)
19.10.2006 11:00 9,9 C 100 % 1008 hPa 0,0 l/m O 2,8 km/h (1 Bft)
19.10.2006 12:00 11,9 C 100 % 1008 hPa 0,0 l/m NO 1,5 km/h (1 Bft)
19.10.2006 13:00 15,2 C 87 % 1007 hPa 0,0 l/m SO 2,8 km/h (1 Bft)
19.10.2006 14:00 17,3 C 71 % 1007 hPa 0,0 l/m O 7,6 km/h (2 Bft)
19.10.2006 15:00 17,8 C 68 % 1006 hPa 0,0 l/m SO 8,0 km/h (2 Bft)
19.10.2006 16:00 17,3 C 70 % 1006 hPa 0,0 l/m O-NO 4,5 km/h (1 Bft)
19.10.2006 17:00 16,0 C 77 % 1005 hPa 0,0 l/m N 0,0 km/h (0 Bft)
19.10.2006 18:00 14,2 C 86 % 1005 hPa 0,0 l/m N 0,0 km/h (0 Bft)
19.10.2006 19:00 12,3 C 92 % 1005 hPa 0,0 l/m N 0,0 km/h (0 Bft)
19.10.2006 20:00 11,2 C 96 % 1005 hPa 0,0 l/m N 0,0 km/h (0 Bft)
19.10.2006 21:00 10,8 C 97 % 1005 hPa 0,0 l/m N 0,1 km/h (0 Bft)
19.10.2006 22:00 10,7 C 97 % 1005 hPa 0,0 l/m W-SW 3,0 km/h (1 Bft)
19.10.2006 23:00 10,7 C 96 % 1005 hPa 0,0 l/m W-NW 1,2 km/h (1 Bft)
20.10.2006 00:00 10,2 C 97 % 1005 hPa 0,0 l/m SW 1,8 km/h (1 Bft)
20.10.2006 01:00 9,9 C 99 % 1005 hPa 0,0 l/m W 0,5 km/h (0 Bft)
20.10.2006 02:00 9,5 C 99 % 1004 hPa 0,0 l/m N 0,0 km/h (0 Bft)
20.10.2006 03:00 8,5 C 99 % 1004 hPa 0,0 l/m N 0,0 km/h (0 Bft)
20.10.2006 04:00 7,7 C 100 % 1004 hPa 0,0 l/m NO 0,7 km/h (0 Bft)
20.10.2006 05:00 7,0 C 100 % 1004 hPa 0,0 l/m N 0,0 km/h (0 Bft)
20.10.2006 06:00 6,6 C 100 % 1005 hPa 0,0 l/m N 0,0 km/h (0 Bft)
20.10.2006 07:00 6,6 C 100 % 1005 hPa 0,0 l/m N 0,0 km/h (0 Bft)
20.10.2006 08:00 7,3 C 100 % 1005 hPa 0,0 l/m N 0,0 km/h (0 Bft)
20.10.2006 09:00 8,8 C 100 % 1006 hPa 0,0 l/m O-SO 1,7 km/h (1 Bft)
20.10.2006 10:00 10,0 C 100 % 1006 hPa 0,0 l/m O-SO 7,5 km/h (2 Bft)
20.10.2006 11:00 10,8 C 100 % 1006 hPa 0,0 l/m O-SO 8,5 km/h (2 Bft)
20.10.2006 12:00 13,4 C 94 % 1006 hPa 0,0 l/m O 9,5 km/h (2 Bft)
20.10.2006 13:00 16,3 C 74 % 1006 hPa 0,0 l/m SO 7,8 km/h (2 Bft)
20.10.2006 14:00 18,2 C 63 % 1005 hPa 0,0 l/m SO 8,5 km/h (2 Bft)
20.10.2006 15:00 18,5 C 55 % 1005 hPa 0,0 l/m SO 7,7 km/h (2 Bft)
20.10.2006 16:00 17,4 C 60 % 1005 hPa 0,0 l/m SO 6,7 km/h (2 Bft)
20.10.2006 17:00 15,9 C 71 % 1005 hPa 0,0 l/m N 0,0 km/h (0 Bft)
20.10.2006 18:00 13,9 C 78 % 1005 hPa 0,0 l/m S-SW 1,8 km/h (1 Bft)
20.10.2006 19:00 12,4 C 85 % 1006 hPa 0,0 l/m N 0,0 km/h (0 Bft)
20.10.2006 20:00 11,8 C 92 % 1006 hPa 0,0 l/m N 0,0 km/h (0 Bft)
20.10.2006 21:00 11,7 C 94 % 1006 hPa 0,0 l/m O-SO 1,9 km/h (1 Bft)
20.10.2006 22:00 11,4 C 95 % 1007 hPa 0,0 l/m N 0,0 km/h (0 Bft)
20.10.2006 23:00 10,5 C 97 % 1007 hPa 0,0 l/m O-SO 0,3 km/h (0 Bft)
21.10.2006 00:00 10,3 C 99 % 1007 hPa 0,0 l/m N 0,0 km/h (0 Bft)
21.10.2006 01:00 9,9 C 100 % 1007 hPa 0,0 l/m N 0,0 km/h (0 Bft)
21.10.2006 02:00 9,8 C 100 % 1007 hPa 0,0 l/m N 0,0 km/h (0 Bft)
21.10.2006 03:00 9,9 C 100 % 1007 hPa 0,0 l/m N 0,0 km/h (0 Bft)
21.10.2006 04:00 10,2 C 100 % 1007 hPa 0,0 l/m N 0,0 km/h (0 Bft)
21.10.2006 05:00 10,4 C 100 % 1007 hPa 0,0 l/m N 0,0 km/h (0 Bft)
21.10.2006 06:00 10,2 C 100 % 1007 hPa 0,0 l/m N 0,0 km/h (0 Bft)
21.10.2006 07:00 10,0 C 100 % 1007 hPa 0,0 l/m N 0,0 km/h (0 Bft)
21.10.2006 08:00 10,1 C 100 % 1008 hPa 0,0 l/m O 0,5 km/h (0 Bft)
21.10.2006 09:00 10,8 C 100 % 1009 hPa 0,0 l/m O 1,9 km/h (1 Bft)
21.10.2006 10:00 11,8 C 100 % 1009 hPa 0,0 l/m O-SO 7,7 km/h (2 Bft)
21.10.2006 11:00 13,3 C 98 % 1009 hPa 0,0 l/m SO 7,0 km/h (2 Bft)
21.10.2006 12:00 15,3 C 81 % 1009 hPa 0,0 l/m S 10,3 km/h (2 Bft)
21.10.2006 13:00 15,9 C 75 % 1009 hPa 0,0 l/m S 8,9 km/h (2 Bft)
21.10.2006 14:00 16,5 C 72 % 1009 hPa 0,0 l/m S-SO 9,3 km/h (2 Bft)
21.10.2006 15:00 17,7 C 66 % 1009 hPa 0,0 l/m SO 8,4 km/h (2 Bft)
21.10.2006 16:00 16,6 C 69 % 1009 hPa 0,0 l/m S-SW 7,5 km/h (2 Bft)
21.10.2006 17:00 15,8 C 72 % 1009 hPa 0,0 l/m S-SW 4,9 km/h (1 Bft)
21.10.2006 18:00 14,0 C 82 % 1010 hPa 0,0 l/m S 0,2 km/h (0 Bft)
21.10.2006 19:00 12,9 C 90 % 1010 hPa 0,0 l/m N 0,0 km/h (0 Bft)
21.10.2006 20:00 12,1 C 93 % 1011 hPa 0,0 l/m N 0,0 km/h (0 Bft)
21.10.2006 21:00 11,4 C 96 % 1011 hPa 0,0 l/m N 0,0 km/h (0 Bft)
21.10.2006 22:00 11,1 C 98 % 1011 hPa 0,0 l/m N 0,0 km/h (0 Bft)
21.10.2006 23:00 10,6 C 99 % 1012 hPa 0,0 l/m N 0,0 km/h (0 Bft)
22.10.2006 00:00 10,3 C 100 % 1012 hPa 0,0 l/m N 0,0 km/h (0 Bft)
22.10.2006 01:00 10,3 C 100 % 1012 hPa 0,0 l/m N 0,0 km/h (0 Bft)
22.10.2006 02:00 9,9 C 100 % 1012 hPa 0,0 l/m N 0,0 km/h (0 Bft)
22.10.2006 03:00 9,6 C 100 % 1012 hPa 0,0 l/m N 0,0 km/h (0 Bft)
22.10.2006 04:00 10,0 C 100 % 1012 hPa 0,0 l/m N 0,0 km/h (0 Bft)
22.10.2006 05:00 10,0 C 100 % 1012 hPa 0,0 l/m N 0,0 km/h (0 Bft)
22.10.2006 06:00 10,6 C 100 % 1012 hPa 0,0 l/m SO 2,6 km/h (1 Bft)
22.10.2006 07:00 11,2 C 100 % 1012 hPa 0,0 l/m O 1,0 km/h (0 Bft)
22.10.2006 08:00 10,9 C 100 % 1013 hPa 0,0 l/m O-NO 1,4 km/h (1 Bft)
22.10.2006 09:00 11,2 C 100 % 1012 hPa 0,0 l/m O-SO 5,3 km/h (1 Bft)
22.10.2006 10:00 12,9 C 96 % 1012 hPa 0,0 l/m SO 4,7 km/h (1 Bft)
22.10.2006 11:00 15,5 C 73 % 1012 hPa 0,0 l/m O 8,2 km/h (2 Bft)
22.10.2006 12:00 16,8 C 64 % 1011 hPa 0,0 l/m O-SO 7,4 km/h (2 Bft)
22.10.2006 13:00 19,1 C 53 % 1011 hPa 0,0 l/m SO 4,7 km/h (1 Bft)
22.10.2006 14:00 20,0 C 49 % 1010 hPa 0,0 l/m N-NO 3,2 km/h (1 Bft)
22.10.2006 15:00 19,5 C 49 % 1009 hPa 0,0 l/m N-NO 2,9 km/h (1 Bft)
22.10.2006 16:00 19,1 C 49 % 1009 hPa 0,0 l/m N-NO 5,7 km/h (1 Bft)
22.10.2006 17:00 18,1 C 56 % 1008 hPa 0,0 l/m N-NO 3,5 km/h (1 Bft)
22.10.2006 18:00 15,4 C 69 % 1008 hPa 0,0 l/m N 0,0 km/h (0 Bft)
22.10.2006 19:00 13,4 C 79 % 1008 hPa 0,0 l/m SW 0,8 km/h (0 Bft)
22.10.2006 20:00 12,4 C 85 % 1007 hPa 0,0 l/m W-SW 1,2 km/h (1 Bft)
22.10.2006 21:00 11,4 C 89 % 1007 hPa 0,0 l/m N 0,0 km/h (0 Bft)
22.10.2006 22:00 10,6 C 96 % 1008 hPa 0,0 l/m N 0,0 km/h (0 Bft)
22.10.2006 23:00 10,4 C 97 % 1008 hPa 0,0 l/m N 0,0 km/h (0 Bft)
Min-Datum _ 18.10.06 22.10.06 20.10.06 - - 16.10.06
_ Min-Zeit 03:10 14:14 00:34 - - 00:00
Minimum _ 3,0 C 47 % 1004 hPa - - 0,0 km/h (0 Bft)
Max-Datum _ 22.10.06 16.10.06 16.10.06 16.10.06 - 21.10.06
_ Max-Zeit 14:14 00:00 00:35 00:00 - 12:22
Maximum _ 20,1 C 100 % 1026 hPa 0,0 l/m - 21,2 km/h
S (4 Bft)
Durchschnitt _ 10,2 C 90 % 1013 hPa #0,0 l/m SO 2,6 km/h (1 Bft)

Durchschnitt Minimum Temp.9,8 C
Durchschnitt Maximum Temp.10,7 C